Time;durP1;ratioP1;P1;durP2;ratioP2;P2;SDS_P1;SDS_P2;PMS_P1;PMS_P2;Temp;Humidity;BMP_temperature;BMP_pressure;BME280_temperature;BME280_humidity;BME280_pressure;Samples;Min_cycle;Max_cycle;Signal;HPM_P1;HPM_P2
2021/12/20 00:01:40;;;;;;;39.85;16.42;;;;;;;3.44;100.00;102444.09;5017717;28;20037;-79
2021/12/20 00:04:05;;;;;;;72.30;20.80;;;;;;;3.46;100.00;102431.59;5018188;28;20037;-80
2021/12/20 00:06:31;;;;;;;61.53;15.05;;;;;;;3.42;100.00;102441.56;5020651;28;20373;-80
2021/12/20 00:08:57;;;;;;;50.03;13.05;;;;;;;3.24;100.00;102408.03;5017627;28;20040;-80
2021/12/20 00:11:22;;;;;;;37.10;10.60;;;;;;;3.41;100.00;102410.56;4981236;28;20029;-79
2021/12/20 00:13:48;;;;;;;31.33;10.77;;;;;;;3.51;100.00;102424.19;5008033;28;20475;-79
2021/12/20 00:16:14;;;;;;;49.03;19.08;;;;;;;3.54;100.00;102424.00;4988292;28;20029;-80
2021/12/20 00:18:42;;;;;;;54.15;14.93;;;;;;;3.49;100.00;102426.09;5003524;28;20562;-80
2021/12/20 00:21:08;;;;;;;35.95;10.50;;;;;;;3.49;100.00;102410.13;5007840;28;20037;-79
2021/12/20 00:23:34;;;;;;;36.80;10.35;;;;;;;3.45;100.00;102417.44;5008885;28;20483;-80
2021/12/20 00:26:00;;;;;;;70.20;15.25;;;;;;;3.38;100.00;102416.06;4990267;28;20060;-80
2021/12/20 00:28:25;;;;;;;36.08;13.70;;;;;;;3.47;100.00;102415.56;5024855;28;20060;-79
2021/12/20 00:30:51;;;;;;;23.20;9.90;;;;;;;3.46;100.00;102411.16;5025327;28;20487;-79
2021/12/20 00:33:17;;;;;;;38.65;15.77;;;;;;;3.47;100.00;102412.91;5022757;28;20033;-79
2021/12/20 00:35:44;;;;;;;53.08;14.20;;;;;;;3.41;100.00;102407.91;5024653;28;20033;-79
2021/12/20 00:40:54;;;;;;;31.45;12.32;;;;;;;3.28;100.00;102375.00;5022100;28;20036;-80
2021/12/20 00:43:21;;;;;;;54.05;17.15;;;;;;;3.41;100.00;102396.44;4990956;28;20033;-81
2021/12/20 00:45:46;;;;;;;49.45;19.42;;;;;;;3.42;100.00;102388.38;5021791;28;20856;-80
2021/12/20 00:48:12;;;;;;;31.67;8.05;;;;;;;3.44;100.00;102391.81;5019781;28;20022;-79
2021/12/20 00:50:39;;;;;;;25.63;9.43;;;;;;;3.35;100.00;102388.81;5035808;28;20049;-79
2021/12/20 00:53:05;;;;;;;38.28;17.50;;;;;;;3.29;100.00;102374.94;5004097;28;20049;-79
2021/12/20 00:55:30;;;;;;;35.35;14.10;;;;;;;3.33;100.00;102382.72;4997789;28;20029;-79
2021/12/20 00:57:58;;;;;;;34.13;9.68;;;;;;;3.25;100.00;102378.69;5015713;28;20057;-79
2021/12/20 01:00:26;;;;;;;45.25;14.48;;;;;;;3.16;100.00;102371.25;5019498;28;20113;-80
2021/12/20 01:02:53;;;;;;;32.83;13.55;;;;;;;3.26;100.00;102376.91;5005085;28;20048;-80
2021/12/20 01:05:20;;;;;;;65.32;18.52;;;;;;;3.21;100.00;102361.22;5003311;28;20041;-79
2021/12/20 01:07:48;;;;;;;34.47;14.75;;;;;;;3.26;100.00;102358.31;5020306;28;20552;-80
2021/12/20 01:10:14;;;;;;;42.47;16.38;;;;;;;3.24;100.00;102369.03;5016291;28;20088;-80
2021/12/20 01:12:42;;;;;;;32.80;10.90;;;;;;;3.14;100.00;102345.72;5004211;28;20512;-80
2021/12/20 01:15:21;;;;;;;24.40;9.20;;;;;;;3.23;100.00;102363.81;5025660;28;20029;-79
2021/12/20 01:17:48;;;;;;;31.58;7.60;;;;;;;3.13;100.00;102352.00;5010781;28;20572;-80
2021/12/20 01:20:14;;;;;;;48.70;13.95;;;;;;;3.15;100.00;102358.06;5025069;28;20029;-80
2021/12/20 01:22:42;;;;;;;33.38;13.02;;;;;;;3.08;100.00;102358.41;5018679;28;20052;-79
2021/12/20 01:25:08;;;;;;;39.63;15.48;;;;;;;3.11;100.00;102354.72;5009718;28;20033;-80
2021/12/20 01:27:34;;;;;;;38.83;16.35;;;;;;;3.12;100.00;102351.09;5024159;28;20049;-79
2021/12/20 01:30:04;;;;;;;37.53;13.30;;;;;;;3.12;100.00;102337.81;5017057;28;20033;-79
2021/12/20 01:32:29;;;;;;;37.28;13.70;;;;;;;3.17;100.00;102354.34;5016198;28;20040;-80
2021/12/20 01:34:57;;;;;;;23.88;10.35;;;;;;;3.09;100.00;102338.00;4992894;28;20398;-81
2021/12/20 01:37:23;;;;;;;41.42;16.08;;;;;;;3.12;100.00;102342.28;5013145;28;20057;-80
2021/12/20 01:39:49;;;;;;;32.42;13.15;;;;;;;3.12;100.00;102340.47;5005988;28;20037;-81
2021/12/20 01:42:19;;;;;;;36.30;9.15;;;;;;;3.04;100.00;102343.59;5012104;28;20045;-81
2021/12/20 01:44:46;;;;;;;35.92;11.10;;;;;;;3.05;100.00;102337.34;5008822;28;20092;-80
2021/12/20 01:47:13;;;;;;;37.75;12.60;;;;;;;2.97;100.00;102328.94;4991703;28;20025;-80
2021/12/20 01:49:52;;;;;;;44.70;18.30;;;;;;;3.15;100.00;102334.13;5027300;28;20090;-81
2021/12/20 01:52:20;;;;;;;29.60;11.52;;;;;;;3.06;100.00;102338.19;5027344;28;20030;-80
2021/12/20 01:54:46;;;;;;;46.38;19.67;;;;;;;3.11;100.00;102340.59;5006981;28;20037;-80
2021/12/20 01:57:12;;;;;;;34.17;15.15;;;;;;;3.09;100.00;102333.53;5019874;28;20125;-81
2021/12/20 01:59:43;;;;;;;56.13;17.08;;;;;;;2.93;100.00;102331.84;5017878;28;20497;-82
2021/12/20 02:02:09;;;;;;;42.88;13.50;;;;;;;3.01;100.00;102346.41;4999936;28;20025;-79
2021/12/20 02:04:45;;;;;;;50.40;18.02;;;;;;;3.01;100.00;102341.09;5026258;28;20052;-79
2021/12/20 02:07:30;;;;;;;24.88;10.52;;;;;;;2.94;100.00;102326.47;5010580;28;20049;-79
2021/12/20 02:09:56;;;;;;;38.90;9.57;;;;;;;2.86;100.00;102316.28;4992253;28;20049;-80
2021/12/20 02:12:21;;;;;;;46.95;17.45;;;;;;;2.92;100.00;102325.69;4997824;28;20390;-79
2021/12/20 02:14:47;;;;;;;29.42;12.48;;;;;;;2.93;100.00;102319.41;5015482;28;20040;-79
2021/12/20 02:17:14;;;;;;;65.72;16.13;;;;;;;2.92;100.00;102323.03;5023140;28;20112;-79
2021/12/20 02:19:39;;;;;;;68.53;14.82;;;;;;;2.94;100.00;102321.16;5011638;28;20025;-79
2021/12/20 02:22:06;;;;;;;35.50;11.32;;;;;;;2.97;100.00;102318.31;5009522;28;20045;-80
2021/12/20 02:24:31;;;;;;;57.05;25.85;;;;;;;2.89;100.00;102282.53;5053223;28;20050;-79
2021/12/20 02:26:57;;;;;;;34.75;10.65;;;;;;;3.11;100.00;102319.31;5031295;28;20037;-80
2021/12/20 02:29:38;;;;;;;30.02;12.45;;;;;;;3.13;100.00;102320.09;5020905;28;20025;-80
2021/12/20 02:37:33;;;;;;;54.25;21.35;;;;;;;3.06;100.00;102309.81;5025439;28;20044;-79
2021/12/20 02:39:59;;;;;;;54.22;20.17;;;;;;;3.05;100.00;102321.38;5022550;28;20041;-80
2021/12/20 02:42:31;;;;;;;45.80;13.23;;;;;;;2.95;100.00;102306.06;4999856;28;20372;-80
2021/12/20 02:45:14;;;;;;;23.45;8.93;;;;;;;3.00;100.00;102319.94;5005875;28;20048;-81
2021/12/20 02:47:43;;;;;;;43.33;17.90;;;;;;;3.09;100.00;102332.69;5011826;28;20431;-79
2021/12/20 02:50:10;;;;;;;38.88;11.98;;;;;;;3.05;100.00;102331.16;4986026;28;20606;-80
2021/12/20 02:52:36;;;;;;;69.30;21.25;;;;;;;3.11;100.00;102321.97;4998072;28;20034;-81
2021/12/20 02:55:03;;;;;;;72.25;14.52;;;;;;;3.09;100.00;102322.06;5016397;28;20367;-80
2021/12/20 02:57:29;;;;;;;45.50;11.27;;;;;;;3.00;100.00;102312.81;5020153;28;20112;-80
2021/12/20 02:59:55;;;;;;;70.13;17.02;;;;;;;3.12;100.00;102305.06;4986583;28;20486;-79
2021/12/20 03:02:22;;;;;;;55.22;18.98;;;;;;;3.13;100.00;102304.16;4985883;28;20036;-80
2021/12/20 03:04:48;;;;;;;52.90;15.75;;;;;;;3.10;100.00;102297.22;5000142;28;20034;-79
2021/12/20 03:07:21;;;;;;;38.63;15.80;;;;;;;3.13;100.00;102294.38;4997641;28;20382;-79
2021/12/20 03:09:52;;;;;;;42.00;19.73;;;;;;;3.05;100.00;102286.00;5016546;28;20034;-79
2021/12/20 03:12:27;;;;;;;40.10;14.10;;;;;;;3.01;100.00;102287.94;5017032;28;20037;-79
2021/12/20 03:15:00;;;;;;;39.85;16.80;;;;;;;3.07;100.00;102290.28;4985074;28;20056;-80
2021/12/20 03:17:25;;;;;;;62.63;17.33;;;;;;;2.93;100.00;102287.53;5022169;28;20036;-80
2021/12/20 03:19:51;;;;;;;63.92;17.60;;;;;;;2.98;100.00;102277.50;4989601;28;20025;-79
2021/12/20 03:22:17;;;;;;;55.72;19.08;;;;;;;2.92;100.00;102280.53;4982411;28;20427;-80
2021/12/20 03:24:43;;;;;;;31.60;10.55;;;;;;;2.99;100.00;102289.88;5006153;28;20045;-80
2021/12/20 03:27:08;;;;;;;62.25;23.58;;;;;;;2.96;100.00;102281.19;5025492;28;20037;-80
2021/12/20 03:29:34;;;;;;;41.70;10.18;;;;;;;2.93;100.00;102292.00;5022417;28;20060;-80
2021/12/20 03:32:00;;;;;;;45.63;14.60;;;;;;;2.98;100.00;102296.09;4991317;28;20034;-79
2021/12/20 03:34:26;;;;;;;64.38;14.88;;;;;;;2.91;100.00;102285.91;5005039;28;20088;-80
2021/12/20 03:36:51;;;;;;;46.47;14.48;;;;;;;2.98;100.00;102289.94;5001905;28;20030;-79
2021/12/20 03:39:17;;;;;;;29.90;8.48;;;;;;;2.93;100.00;102292.00;5006169;28;20026;-81
2021/12/20 03:41:43;;;;;;;50.35;17.52;;;;;;;2.84;100.00;102277.47;5004648;28;20127;-81
2021/12/20 03:44:09;;;;;;;54.53;14.15;;;;;;;2.97;100.00;102299.72;5002831;28;20052;-79
2021/12/20 03:46:35;;;;;;;65.97;14.52;;;;;;;2.88;100.00;102281.63;5007767;28;20270;-79
2021/12/20 03:49:01;;;;;;;50.20;11.50;;;;;;;3.07;100.00;102290.28;4990033;28;20034;-80
2021/12/20 03:51:26;;;;;;;63.95;13.45;;;;;;;3.00;100.00;102285.41;5017831;28;20124;-80
2021/12/20 03:53:52;;;;;;;64.82;14.85;;;;;;;2.98;100.00;102290.78;5013699;28;20041;-79
2021/12/20 03:56:18;;;;;;;43.45;10.85;;;;;;;3.00;100.00;102294.22;5019607;28;20036;-79
2021/12/20 03:58:44;;;;;;;66.05;17.30;;;;;;;2.94;100.00;102275.09;5008979;28;20072;-81
2021/12/20 04:01:11;;;;;;;47.65;16.42;;;;;;;3.11;100.00;102287.44;5020113;28;20318;-79
2021/12/20 04:03:37;;;;;;;95.18;15.98;;;;;;;3.06;100.00;102279.72;5020561;28;20138;-80
2021/12/20 04:06:05;;;;;;;47.97;17.35;;;;;;;3.12;100.00;102273.19;5018772;28;20152;-80
2021/12/20 04:08:31;;;;;;;49.42;14.95;;;;;;;2.95;100.00;102272.38;5021097;28;20040;-79
2021/12/20 04:10:58;;;;;;;47.58;12.38;;;;;;;2.97;100.00;102286.44;5008301;28;20034;-79
2021/12/20 04:13:26;;;;;;;76.00;17.20;;;;;;;3.03;100.00;102277.25;4990920;28;20045;-79
2021/12/20 04:15:51;;;;;;;62.17;14.27;;;;;;;2.98;100.00;102276.66;5005555;28;20034;-79
2021/12/20 04:18:17;;;;;;;61.33;20.83;;;;;;;3.12;100.00;102259.91;5008860;28;20064;-80
2021/12/20 04:20:43;;;;;;;95.72;16.73;;;;;;;3.00;100.00;102258.81;4992689;28;20557;-79
2021/12/20 04:23:08;;;;;;;88.07;16.60;;;;;;;3.03;100.00;102261.31;4989300;28;20041;-80
2021/12/20 04:25:34;;;;;;;96.35;17.83;;;;;;;3.00;100.00;102259.69;5007691;28;20041;-80
2021/12/20 04:28:00;;;;;;;68.07;12.65;;;;;;;3.05;100.00;102257.59;5004788;28;20042;-80
2021/12/20 04:30:29;;;;;;;87.47;16.02;;;;;;;3.13;100.00;102254.50;4987767;28;20468;-79
2021/12/20 04:32:54;;;;;;;127.88;20.75;;;;;;;3.07;100.00;102255.72;5020015;28;20465;-79
2021/12/20 04:35:20;;;;;;;82.93;19.17;;;;;;;3.11;100.00;102251.06;5008147;28;20558;-80
2021/12/20 04:37:48;;;;;;;57.75;14.40;;;;;;;3.09;100.00;102247.66;4992089;28;20486;-80
2021/12/20 04:40:18;;;;;;;69.43;16.40;;;;;;;2.99;100.00;102230.53;5007296;28;20525;-79
2021/12/20 04:42:46;;;;;;;68.88;15.40;;;;;;;2.99;100.00;102226.09;5018550;28;20029;-80
2021/12/20 04:45:14;;;;;;;59.63;15.80;;;;;;;3.04;100.00;102239.09;4992719;28;20087;-80
2021/12/20 04:47:40;;;;;;;93.20;20.30;;;;;;;3.07;100.00;102246.91;5026568;28;20083;-79
2021/12/20 04:50:06;;;;;;;99.18;17.98;;;;;;;3.05;100.00;102257.59;4994904;28;20045;-80
2021/12/20 04:52:32;;;;;;;52.20;12.38;;;;;;;3.07;100.00;102261.03;5025206;28;20432;-80
2021/12/20 04:54:58;;;;;;;121.90;20.67;;;;;;;3.11;100.00;102260.84;5003465;28;20485;-79
2021/12/20 04:57:23;;;;;;;84.60;17.27;;;;;;;2.95;100.00;102243.16;5021133;28;20119;-80
2021/12/20 04:59:49;;;;;;;87.00;16.92;;;;;;;3.02;100.00;102267.56;5026778;28;20075;-79
2021/12/20 05:02:15;;;;;;;107.70;19.08;;;;;;;3.05;100.00;102270.91;4991966;28;20033;-80
2021/12/20 05:04:42;;;;;;;28.02;10.05;;;;;;;3.02;100.00;102268.41;5026230;28;20044;-80
2021/12/20 05:07:07;;;;;;;84.65;18.63;;;;;;;3.01;100.00;102261.38;5014468;28;20536;-80
2021/12/20 05:09:38;;;;;;;78.75;15.68;;;;;;;2.96;100.00;102254.63;5020160;28;20095;-81
2021/12/20 05:12:11;;;;;;;97.22;18.75;;;;;;;3.00;100.00;102256.16;5019707;28;20068;-79
2021/12/20 05:14:44;;;;;;;96.18;18.42;;;;;;;3.03;100.00;102261.31;4990505;28;20033;-79
2021/12/20 05:17:12;;;;;;;102.75;21.90;;;;;;;3.01;100.00;102266.69;5021714;28;20546;-79
2021/12/20 05:19:39;;;;;;;101.82;19.40;;;;;;;3.00;100.00;102264.16;5012671;28;20044;-79
2021/12/20 05:22:05;;;;;;;96.60;21.85;;;;;;;2.88;100.00;102243.59;5009874;28;20045;-80
2021/12/20 05:24:31;;;;;;;80.95;17.80;;;;;;;2.99;100.00;102273.03;4993209;28;20049;-79
2021/12/20 05:26:56;;;;;;;82.75;16.15;;;;;;;2.86;100.00;102254.31;5022394;28;20041;-80
2021/12/20 05:29:24;;;;;;;67.35;17.20;;;;;;;2.88;100.00;102273.66;4999834;28;20072;-80
2021/12/20 05:31:50;;;;;;;51.85;13.82;;;;;;;2.78;100.00;102261.84;5024613;28;20537;-80
2021/12/20 05:34:16;;;;;;;56.53;14.63;;;;;;;2.46;100.00;102222.09;5024822;28;20076;-80
2021/12/20 05:36:41;;;;;;;52.05;15.80;;;;;;;2.71;100.00;102277.31;5023424;28;20076;-79
2021/12/20 05:39:07;;;;;;;53.85;13.45;;;;;;;2.61;100.00;102263.69;4986668;28;20821;-79
2021/12/20 05:41:33;;;;;;;42.22;11.20;;;;;;;2.60;100.00;102272.59;5018915;28;20026;-81
2021/12/20 05:43:59;;;;;;;49.03;13.40;;;;;;;2.54;100.00;102264.13;5017725;28;20029;-81
2021/12/20 05:46:24;;;;;;;43.92;11.80;;;;;;;2.53;100.00;102267.72;5022152;28;20034;-79
2021/12/20 05:48:50;;;;;;;58.30;16.48;;;;;;;2.46;100.00;102256.59;5029448;28;20029;-80
2021/12/20 05:51:16;;;;;;;48.97;13.38;;;;;;;2.47;100.00;102254.81;4993499;28;20045;-80
2021/12/20 05:53:42;;;;;;;47.17;12.95;;;;;;;2.48;100.00;102262.66;4994246;28;20128;-79
2021/12/20 05:56:07;;;;;;;53.53;12.07;;;;;;;2.52;100.00;102271.34;4990724;28;20033;-79
2021/12/20 05:58:33;;;;;;;48.88;14.60;;;;;;;2.43;100.00;102251.44;4989550;28;20061;-80
2021/12/20 06:00:59;;;;;;;58.67;14.50;;;;;;;2.36;100.00;102231.53;4992467;28;20056;-79
2021/12/20 06:03:24;;;;;;;60.40;13.15;;;;;;;2.52;100.00;102260.72;5005429;28;20069;-79
2021/12/20 06:05:50;;;;;;;58.83;14.02;;;;;;;2.50;100.00;102246.66;4989322;28;20030;-78
2021/12/20 06:08:16;;;;;;;52.83;13.63;;;;;;;2.44;100.00;102239.91;5024549;28;20087;-79
2021/12/20 06:10:42;;;;;;;58.80;14.27;;;;;;;2.47;100.00;102250.34;5006667;28;20049;-79
2021/12/20 06:13:07;;;;;;;43.13;12.32;;;;;;;2.44;100.00;102242.56;4988356;28;20667;-80
2021/12/20 06:15:33;;;;;;;55.88;13.98;;;;;;;2.42;100.00;102233.81;5022482;28;20045;-80
2021/12/20 06:17:59;;;;;;;62.60;15.60;;;;;;;2.34;100.00;102226.28;5018014;28;20119;-80
2021/12/20 06:20:25;;;;;;;55.15;14.73;;;;;;;2.46;100.00;102253.97;5019294;28;20118;-80
2021/12/20 06:22:51;;;;;;;64.38;15.45;;;;;;;2.39;100.00;102240.16;4992891;28;20395;-79
2021/12/20 06:25:17;;;;;;;71.13;15.38;;;;;;;2.47;100.00;102245.03;5027113;28;20033;-79
2021/12/20 06:27:43;;;;;;;56.58;14.23;;;;;;;2.49;100.00;102253.78;5019471;28;20439;-79
2021/12/20 06:30:09;;;;;;;65.70;15.02;;;;;;;2.50;100.00;102258.13;5008634;28;20037;-79
2021/12/20 06:32:40;;;;;;;66.65;17.35;;;;;;;2.48;100.00;102249.38;5023114;28;20033;-80
2021/12/20 06:35:06;;;;;;;77.82;17.73;;;;;;;2.47;100.00;102245.03;5024301;28;20116;-79
2021/12/20 06:37:32;;;;;;;74.15;19.05;;;;;;;2.52;100.00;102253.59;5002270;28;20133;-79
2021/12/20 06:39:59;;;;;;;81.75;20.95;;;;;;;2.52;100.00;102247.44;5025853;28;20079;-80
2021/12/20 06:42:25;;;;;;;94.72;19.00;;;;;;;2.54;100.00;102242.88;5010950;28;20037;-79
2021/12/20 06:44:51;;;;;;;71.78;17.55;;;;;;;2.54;100.00;102234.91;5024247;28;20037;-80
2021/12/20 06:47:18;;;;;;;50.90;13.02;;;;;;;2.64;100.00;102242.25;5008201;28;20041;-80
2021/12/20 06:49:43;;;;;;;70.40;17.23;;;;;;;2.69;100.00;102244.66;4995583;28;20624;-78
2021/12/20 06:52:09;;;;;;;68.47;16.67;;;;;;;2.74;100.00;102247.91;4988344;28;20037;-79
2021/12/20 06:54:35;;;;;;;61.80;17.30;;;;;;;2.86;100.00;102249.88;5009092;28;21967;-80
2021/12/20 06:57:01;;;;;;;57.38;16.77;;;;;;;2.91;100.00;102256.69;5007874;28;20045;-81
2021/12/20 06:59:27;;;;;;;44.03;14.68;;;;;;;2.98;100.00;102240.31;5020074;28;20128;-80
2021/12/20 07:01:53;;;;;;;42.85;12.75;;;;;;;3.03;100.00;102243.53;5020425;28;20302;-80
2021/12/20 07:04:18;;;;;;;58.33;14.48;;;;;;;3.05;100.00;102244.31;5022864;28;20108;-79
2021/12/20 07:06:44;;;;;;;62.13;15.77;;;;;;;3.12;100.00;102233.31;4990605;28;20069;-81
2021/12/20 07:09:10;;;;;;;48.42;14.98;;;;;;;3.06;100.00;102222.09;5022912;28;20595;-79
2021/12/20 07:11:36;;;;;;;49.03;14.48;;;;;;;3.20;100.00;102231.06;5000174;28;20041;-80
2021/12/20 07:14:02;;;;;;;67.68;15.73;;;;;;;3.22;100.00;102222.03;5001100;28;20038;-78
2021/12/20 07:16:32;;;;;;;38.97;16.30;;;;;;;3.33;100.00;102218.72;5022563;28;20033;-80
2021/12/20 07:18:59;;;;;;;42.53;12.27;;;;;;;3.38;100.00;102232.59;5009332;28;20131;-80
2021/12/20 07:21:24;;;;;;;22.20;7.60;;;;;;;3.46;100.00;102232.13;5007021;28;20045;-79
2021/12/20 07:23:50;;;;;;;54.55;23.63;;;;;;;3.49;100.00;102235.50;4993049;28;20036;-79
2021/12/20 07:26:15;;;;;;;30.27;12.10;;;;;;;3.48;100.00;102236.41;4994220;28;20033;-80
2021/12/20 07:28:42;;;;;;;55.38;15.48;;;;;;;3.51;100.00;102238.03;5026561;28;20068;-79
2021/12/20 07:31:10;;;;;;;36.10;11.13;;;;;;;3.43;100.00;102230.53;5026570;28;20022;-80
2021/12/20 07:33:35;;;;;;;48.72;20.92;;;;;;;3.53;100.00;102225.50;5012822;28;20041;-79
2021/12/20 07:36:01;;;;;;;33.75;12.40;;;;;;;3.61;100.00;102225.03;5009592;28;20033;-80
2021/12/20 07:38:27;;;;;;;42.38;16.00;;;;;;;3.68;100.00;102231.69;4995864;28;20128;-80
2021/12/20 07:40:52;;;;;;;38.75;10.15;;;;;;;3.55;100.00;102212.97;5010613;28;20486;-79
2021/12/20 07:43:18;;;;;;;18.98;7.40;;;;;;;3.60;100.00;102224.19;5010729;28;20069;-79
2021/12/20 07:45:48;;;;;;;43.03;13.63;;;;;;;3.58;100.00;102214.59;5027241;28;20098;-79
2021/12/20 07:48:16;;;;;;;35.10;13.15;;;;;;;3.56;100.00;102201.38;5009862;28;20064;-79
2021/12/20 07:50:42;;;;;;;34.92;14.68;;;;;;;3.58;100.00;102217.25;4990599;28;20041;-79
2021/12/20 07:53:10;;;;;;;32.53;10.88;;;;;;;3.55;100.00;102212.09;4994038;28;20037;-80
2021/12/20 07:55:36;;;;;;;31.40;11.27;;;;;;;3.59;100.00;102218.94;5027186;28;20156;-81
2021/12/20 07:58:02;;;;;;;26.42;10.65;;;;;;;3.66;100.00;102215.81;5039676;28;20060;-80
2021/12/20 08:00:27;;;;;;;31.33;11.55;;;;;;;3.71;100.00;102218.22;5007574;28;20069;-80
2021/12/20 08:02:54;;;;;;;27.52;10.15;;;;;;;3.73;100.00;102217.16;5022716;28;20471;-81
2021/12/20 08:05:19;;;;;;;32.10;9.70;;;;;;;3.66;100.00;102215.81;4992775;28;20037;-80
2021/12/20 08:07:50;;;;;;;31.98;10.07;;;;;;;3.62;100.00;102222.28;5006334;28;20376;-80
2021/12/20 08:10:20;;;;;;;40.83;10.55;;;;;;;3.52;100.00;102207.84;5018365;28;20029;-80
2021/12/20 08:12:46;;;;;;;26.50;12.07;;;;;;;3.57;100.00;102200.41;4993762;28;20033;-79
2021/12/20 08:15:13;;;;;;;40.20;11.32;;;;;;;3.55;100.00;102212.09;5019609;28;20033;-79
2021/12/20 08:17:39;;;;;;;43.15;11.13;;;;;;;3.59;100.00;102219.81;5028305;28;20548;-80
2021/12/20 08:20:07;;;;;;;38.53;11.43;;;;;;;3.61;100.00;102227.69;4995203;28;20041;-79
2021/12/20 08:22:33;;;;;;;38.90;12.15;;;;;;;3.71;100.00;102227.03;5016654;28;20065;-80
2021/12/20 08:24:58;;;;;;;37.97;10.88;;;;;;;3.73;100.00;102233.13;5029647;28;20057;-79
2021/12/20 08:27:24;;;;;;;37.03;11.63;;;;;;;3.71;100.00;102232.34;5013366;28;20037;-80
2021/12/20 08:29:50;;;;;;;26.85;10.10;;;;;;;3.65;100.00;102215.91;4998186;28;20045;-80
2021/12/20 08:32:15;;;;;;;34.42;11.25;;;;;;;3.70;100.00;102229.78;5025915;28;20028;-79
2021/12/20 08:34:44;;;;;;;38.00;11.27;;;;;;;3.66;100.00;102221.16;5010174;28;20408;-79
2021/12/20 08:37:10;;;;;;;45.60;13.70;;;;;;;3.69;100.00;102222.75;5025655;28;20360;-80
2021/12/20 08:39:36;;;;;;;37.08;13.65;;;;;;;3.68;100.00;102219.25;4995875;28;20566;-79
2021/12/20 08:42:03;;;;;;;27.33;11.27;;;;;;;3.83;100.00;102224.56;4998676;28;20037;-80
2021/12/20 08:44:30;;;;;;;41.97;10.32;;;;;;;3.76;100.00;102218.78;5027143;28;20116;-80
2021/12/20 08:46:56;;;;;;;37.63;11.48;;;;;;;3.78;100.00;102222.16;5016001;28;20037;-79
2021/12/20 08:49:22;;;;;;;37.25;11.45;;;;;;;3.75;100.00;102225.03;5009741;28;20038;-79
2021/12/20 08:51:48;;;;;;;28.92;10.80;;;;;;;3.87;100.00;102213.63;4995593;28;20033;-79
2021/12/20 08:54:14;;;;;;;37.15;11.05;;;;;;;3.98;100.00;102220.94;4992738;28;20057;-79
2021/12/20 08:56:40;;;;;;;48.42;12.32;;;;;;;3.85;100.00;102218.19;5022625;28;20025;-79
2021/12/20 08:59:07;;;;;;;28.42;10.73;;;;;;;3.90;100.00;102215.25;5006010;28;20091;-80
2021/12/20 09:01:39;;;;;;;39.67;11.63;;;;;;;3.83;100.00;102209.44;4993032;28;20038;-80
2021/12/20 09:04:07;;;;;;;38.25;10.90;;;;;;;3.98;100.00;102218.28;5006630;28;20061;-80
2021/12/20 09:06:38;;;;;;;42.15;12.10;;;;;;;3.86;100.00;102198.59;5025876;28;20037;-80
2021/12/20 09:09:04;;;;;;;17.85;6.40;;;;;;;4.11;100.00;102221.00;5011570;28;20034;-81
2021/12/20 09:11:30;;;;;;;41.33;12.35;;;;;;;4.12;100.00;102222.72;5012005;28;20084;-79
2021/12/20 09:13:55;;;;;;;35.40;9.52;;;;;;;4.17;100.00;102225.94;5023402;28;20025;-79
2021/12/20 09:16:22;;;;;;;46.75;12.10;;;;;;;4.19;100.00;102235.53;4995250;28;20041;-80
2021/12/20 09:18:48;;;;;;;33.20;13.00;;;;;;;4.13;100.00;102216.47;4999254;28;20041;-79
2021/12/20 09:21:15;;;;;;;35.97;11.55;;;;;;;4.35;100.00;102235.41;5027857;28;20040;-79
2021/12/20 09:23:41;;;;;;;44.38;13.38;;;;;;;4.25;100.00;102230.78;4996093;28;20113;-80
2021/12/20 09:26:07;;;;;;;27.98;8.65;;;;;;;4.20;100.00;102220.41;5028625;28;20090;-83
2021/12/20 09:28:34;;;;;;;33.60;9.38;;;;;;;4.32;100.00;102230.28;5032029;28;20030;-83
2021/12/20 09:31:00;;;;;;;35.80;11.18;;;;;;;4.33;100.00;102231.97;5030830;28;20043;-83
2021/12/20 09:33:26;;;;;;;39.03;10.60;;;;;;;4.37;100.00;102217.53;4997759;28;20291;-83
2021/12/20 09:35:53;;;;;;;37.33;12.70;;;;;;;4.28;100.00;102199.47;5032434;28;20533;-82
2021/12/20 09:38:20;;;;;;;37.55;10.32;;;;;;;4.47;100.00;102223.09;5031659;28;20061;-82
2021/12/20 09:43:38;;;;;;;28.15;9.07;;;;;;;4.43;100.00;102210.94;4995307;28;20486;-83
2021/12/20 09:46:04;;;;;;;32.15;11.48;;;;;;;4.45;100.00;102218.84;5029516;28;20026;-83
2021/12/20 09:48:30;;;;;;;34.72;11.98;;;;;;;4.41;100.00;102203.03;5012252;28;20391;-82
2021/12/20 09:50:57;;;;;;;34.33;10.38;;;;;;;4.55;100.00;102218.13;5010799;28;20033;-82
2021/12/20 09:53:23;;;;;;;33.08;11.05;;;;;;;4.62;100.00;102221.25;4997562;28;20061;-83
2021/12/20 09:55:50;;;;;;;44.13;11.65;;;;;;;4.60;100.00;102207.16;5010148;28;20061;-82
2021/12/20 09:58:17;;;;;;;35.35;9.95;;;;;;;4.69;100.00;102222.56;5011823;28;20037;-83
2021/12/20 10:00:42;;;;;;;21.88;7.72;;;;;;;4.52;100.00;102166.84;5012628;28;20044;-83
2021/12/20 10:03:08;;;;;;;25.88;10.10;;;;;;;4.71;100.00;102193.13;5030558;28;20038;-84
2021/12/20 10:05:35;;;;;;;26.50;7.88;;;;;;;4.69;100.00;102206.56;5025295;28;20048;-83
2021/12/20 10:08:12;;;;;;;29.55;8.13;;;;;;;4.68;100.00;102199.50;5028977;28;20040;-84
2021/12/20 10:10:46;;;;;;;39.67;10.63;;;;;;;4.79;100.00;102215.66;5022460;28;20040;-83
2021/12/20 10:13:38;;;;;;;29.13;9.00;;;;;;;4.79;100.00;102205.00;4993084;28;20037;-82
2021/12/20 10:16:17;;;;;;;35.65;10.05;;;;;;;4.69;100.00;102179.06;5041343;28;20506;-82
2021/12/20 10:18:42;;;;;;;36.00;9.80;;;;;;;4.67;100.00;102170.31;4989725;28;20050;-82
2021/12/20 10:21:08;;;;;;;35.67;10.13;;;;;;;4.93;100.00;102213.88;5023960;28;20136;-82
2021/12/20 10:23:42;;;;;;;23.23;7.97;;;;;;;4.93;100.00;102196.06;5013620;28;20111;-82
2021/12/20 10:26:12;;;;;;;;;;;;;;;5.07;100.00;102205.78;4997024;28;20065;-82
2021/12/20 10:28:39;;;;;;;34.15;11.00;;;;;;;5.07;100.00;102205.78;5026828;28;20383;-82
2021/12/20 10:31:11;;;;;;;36.33;11.75;;;;;;;5.15;100.00;102216.78;4993638;28;20099;-84
2021/12/20 10:33:40;;;;;;;29.15;7.95;;;;;;;5.25;100.00;102217.84;5010508;28;20556;-84
2021/12/20 10:36:10;;;;;;;28.20;11.98;;;;;;;5.38;100.00;102223.22;5013712;28;20033;-83
2021/12/20 10:38:44;;;;;;;29.27;10.45;;;;;;;5.35;100.00;102226.09;5014673;28;20374;-83
2021/12/20 10:41:20;;;;;;;34.22;12.80;;;;;;;5.35;100.00;102230.56;5028666;28;20095;-83
2021/12/20 10:43:50;;;;;;;35.67;10.10;;;;;;;5.34;100.00;102229.69;5027552;28;20091;-82
2021/12/20 10:46:25;;;;;;;36.40;10.38;;;;;;;5.35;100.00;102235.91;4995506;28;20037;-83
2021/12/20 10:48:59;;;;;;;37.30;11.48;;;;;;;5.42;100.00;102235.34;5030443;28;20479;-82
2021/12/20 10:51:31;;;;;;;32.88;10.93;;;;;;;5.47;100.00;102229.72;5038658;28;20048;-83
2021/12/20 10:54:01;;;;;;;36.75;10.35;;;;;;;5.50;100.00;102225.03;4998097;28;20056;-83
2021/12/20 10:56:32;;;;;;;34.22;11.20;;;;;;;5.56;100.00;102229.09;5025436;28;20036;-82
2021/12/20 10:59:00;;;;;;;32.25;10.40;;;;;;;5.60;100.00;102214.56;5012271;28;20044;-83
2021/12/20 11:04:23;;;;;;;37.78;10.98;;;;;;;5.68;100.00;102227.34;5025948;28;20502;-83
2021/12/20 11:09:38;;;;;;;30.50;8.15;;;;;;;5.68;100.00;102212.19;5027807;28;20286;-82
2021/12/20 11:12:08;;;;;;;33.78;12.57;;;;;;;5.76;100.00;102200.97;4996652;28;20128;-83
2021/12/20 11:14:40;;;;;;;43.35;12.80;;;;;;;5.79;100.00;102210.59;5013870;28;20037;-79
2021/12/20 11:17:09;;;;;;;40.40;10.93;;;;;;;5.82;100.00;102208.56;5008743;28;20633;-79
2021/12/20 11:19:38;;;;;;;48.28;14.13;;;;;;;5.80;100.00;102206.97;5028347;28;20120;-81
2021/12/20 11:22:07;;;;;;;38.33;14.30;;;;;;;5.91;100.00;102207.06;5007135;28;20460;-78
2021/12/20 11:24:38;;;;;;;34.58;10.48;;;;;;;5.98;100.00;102212.81;5024737;28;20064;-81
2021/12/20 11:27:07;;;;;;;49.70;12.45;;;;;;;6.04;100.00;102209.72;5008229;28;20033;-80